UPSVAC Airport Information Service

Ben Gurion

ICAO: LLBG Country: Israel, AS
Latitude: 32.0136 Longitude: 34.8866
Latest Arrival : UPSWT5158 (GMMN-LLBG) Latest Departure : UPSWT5159 (LLBG-VOBL)


WX CaptureLIVE
Data provided by noaa.gov | Fetched at 16:16:23

METAR : LLBG 191520Z 33009KT CAVOK 28/20 Q1013 NOSIG

TAF : LLBG 191108Z 1912/2012 32012KT CAVOK BECMG 1914/1916 VRB03KT PROB40 TEMPO 1922/2006 15004KT 9999 FEW018 BECMG 2006/2008 32012KT TX32/1912Z TN22/2004Z


Runway Data for LLBG
Data provided by openaviationdata.com

Runway ID Mag Var Hdg Length Elevation Surface ILS Freq ILS Id ILS Slope
3 3 25° 5848 ft 135 ft Asphalt -- -- --
8 3 76° 11949 ft 135 ft Asphalt -- -- --
12 3 118° 10134 ft 135 ft Asphalt 110.3 BG 3
21 3 205° 5848 ft 135 ft Asphalt -- -- --
26 3 256° 11949 ft 135 ft Asphalt 108.7 BA 3
30 3 298° 10134 ft 135 ft Asphalt -- -- --

Ben Gurion, Israel, AS
Use only for reference purposes



Not for navigational purposes.